sensor_id;sensor_type;location;lat;lon;timestamp;temperature;humidity
24146;DHT22;12308;50.948;4.706;2023-06-26T00:00:04;24.70;99.90
24146;DHT22;12308;50.948;4.706;2023-06-26T00:02:33;24.70;99.90
24146;DHT22;12308;50.948;4.706;2023-06-26T00:04:59;24.60;99.90
24146;DHT22;12308;50.948;4.706;2023-06-26T00:07:28;24.60;99.90
24146;DHT22;12308;50.948;4.706;2023-06-26T00:09:54;24.60;99.90
24146;DHT22;12308;50.948;4.706;2023-06-26T00:12:20;24.60;99.90
24146;DHT22;12308;50.948;4.706;2023-06-26T00:14:46;24.60;99.90
24146;DHT22;12308;50.948;4.706;2023-06-26T00:17:11;24.60;99.90
24146;DHT22;12308;50.948;4.706;2023-06-26T00:19:37;24.50;99.90
24146;DHT22;12308;50.948;4.706;2023-06-26T00:22:03;24.50;99.90
24146;DHT22;12308;50.948;4.706;2023-06-26T00:24:29;24.40;99.90
24146;DHT22;12308;50.948;4.706;2023-06-26T00:26:54;24.30;99.90
24146;DHT22;12308;50.948;4.706;2023-06-26T00:29:20;24.30;99.90
24146;DHT22;12308;50.948;4.706;2023-06-26T00:31:46;24.30;99.90
24146;DHT22;12308;50.948;4.706;2023-06-26T00:34:11;24.10;99.90
24146;DHT22;12308;50.948;4.706;2023-06-26T00:36:37;24.20;99.90
24146;DHT22;12308;50.948;4.706;2023-06-26T00:39:03;24.20;99.90
24146;DHT22;12308;50.948;4.706;2023-06-26T00:41:29;24.20;99.90
24146;DHT22;12308;50.948;4.706;2023-06-26T00:43:55;24.20;99.90
24146;DHT22;12308;50.948;4.706;2023-06-26T00:46:20;24.10;99.90
24146;DHT22;12308;50.948;4.706;2023-06-26T00:48:48;24.10;99.90
24146;DHT22;12308;50.948;4.706;2023-06-26T00:51:14;23.80;99.90
24146;DHT22;12308;50.948;4.706;2023-06-26T00:53:41;23.80;99.90
24146;DHT22;12308;50.948;4.706;2023-06-26T00:56:08;23.80;99.90
24146;DHT22;12308;50.948;4.706;2023-06-26T00:58:33;23.70;99.90
24146;DHT22;12308;50.948;4.706;2023-06-26T01:00:59;23.80;99.90
24146;DHT22;12308;50.948;4.706;2023-06-26T01:03:26;23.70;99.90
24146;DHT22;12308;50.948;4.706;2023-06-26T01:05:52;23.60;99.90
24146;DHT22;12308;50.948;4.706;2023-06-26T01:08:20;23.60;99.90
24146;DHT22;12308;50.948;4.706;2023-06-26T01:10:46;23.50;99.90
24146;DHT22;12308;50.948;4.706;2023-06-26T01:13:13;23.40;99.90
24146;DHT22;12308;50.948;4.706;2023-06-26T01:15:39;23.30;99.90
24146;DHT22;12308;50.948;4.706;2023-06-26T01:18:06;23.30;99.90
24146;DHT22;12308;50.948;4.706;2023-06-26T01:20:34;23.30;99.90
24146;DHT22;12308;50.948;4.706;2023-06-26T01:28:30;22.90;99.90
24146;DHT22;12308;50.948;4.706;2023-06-26T01:30:58;22.70;99.90
24146;DHT22;12308;50.948;4.706;2023-06-26T01:33:24;22.60;99.90
24146;DHT22;12308;50.948;4.706;2023-06-26T01:35:50;22.50;99.90
24146;DHT22;12308;50.948;4.706;2023-06-26T01:38:17;22.50;99.90
24146;DHT22;12308;50.948;4.706;2023-06-26T01:40:43;22.50;99.90
24146;DHT22;12308;50.948;4.706;2023-06-26T01:43:21;22.60;99.90
24146;DHT22;12308;50.948;4.706;2023-06-26T01:45:51;22.70;99.90
24146;DHT22;12308;50.948;4.706;2023-06-26T01:48:24;22.60;99.90
24146;DHT22;12308;50.948;4.706;2023-06-26T01:50:52;22.60;99.90
24146;DHT22;12308;50.948;4.706;2023-06-26T01:53:23;22.60;99.90
24146;DHT22;12308;50.948;4.706;2023-06-26T01:55:59;22.50;99.90
24146;DHT22;12308;50.948;4.706;2023-06-26T01:58:26;22.60;99.90
24146;DHT22;12308;50.948;4.706;2023-06-26T02:00:53;22.60;99.90
24146;DHT22;12308;50.948;4.706;2023-06-26T02:03:19;22.60;99.90
24146;DHT22;12308;50.948;4.706;2023-06-26T02:05:45;22.40;99.90
24146;DHT22;12308;50.948;4.706;2023-06-26T02:08:14;22.40;99.90
24146;DHT22;12308;50.948;4.706;2023-06-26T02:10:40;22.40;99.90
24146;DHT22;12308;50.948;4.706;2023-06-26T02:13:06;22.30;99.90
24146;DHT22;12308;50.948;4.706;2023-06-26T02:15:31;22.20;99.90
24146;DHT22;12308;50.948;4.706;2023-06-26T02:17:57;22.10;99.90
24146;DHT22;12308;50.948;4.706;2023-06-26T02:20:23;22.20;99.90
24146;DHT22;12308;50.948;4.706;2023-06-26T02:22:48;22.10;99.90
24146;DHT22;12308;50.948;4.706;2023-06-26T02:25:14;22.10;99.90
24146;DHT22;12308;50.948;4.706;2023-06-26T02:27:40;22.20;99.90
24146;DHT22;12308;50.948;4.706;2023-06-26T02:30:07;22.10;99.90
24146;DHT22;12308;50.948;4.706;2023-06-26T02:32:33;22.20;99.90
24146;DHT22;12308;50.948;4.706;2023-06-26T02:34:59;22.20;99.90
24146;DHT22;12308;50.948;4.706;2023-06-26T02:37:24;22.20;99.90
24146;DHT22;12308;50.948;4.706;2023-06-26T02:39:50;22.20;99.90
24146;DHT22;12308;50.948;4.706;2023-06-26T02:42:16;22.10;99.90
24146;DHT22;12308;50.948;4.706;2023-06-26T02:44:41;22.10;99.90
24146;DHT22;12308;50.948;4.706;2023-06-26T02:47:07;22.00;99.90
24146;DHT22;12308;50.948;4.706;2023-06-26T02:49:33;21.90;99.90
24146;DHT22;12308;50.948;4.706;2023-06-26T02:51:58;21.80;99.90
24146;DHT22;12308;50.948;4.706;2023-06-26T02:54:24;21.80;99.90
24146;DHT22;12308;50.948;4.706;2023-06-26T02:56:50;21.70;99.90
24146;DHT22;12308;50.948;4.706;2023-06-26T02:59:15;21.80;99.90
24146;DHT22;12308;50.948;4.706;2023-06-26T03:01:41;21.80;99.90
24146;DHT22;12308;50.948;4.706;2023-06-26T03:04:07;21.80;99.90
24146;DHT22;12308;50.948;4.706;2023-06-26T03:06:33;21.90;99.90
24146;DHT22;12308;50.948;4.706;2023-06-26T03:08:59;22.00;99.90
24146;DHT22;12308;50.948;4.706;2023-06-26T03:11:25;22.00;99.90
24146;DHT22;12308;50.948;4.706;2023-06-26T03:13:50;22.10;99.90
24146;DHT22;12308;50.948;4.706;2023-06-26T03:16:16;21.80;99.90
24146;DHT22;12308;50.948;4.706;2023-06-26T03:18:42;21.60;99.90
24146;DHT22;12308;50.948;4.706;2023-06-26T03:21:08;21.70;99.90
24146;DHT22;12308;50.948;4.706;2023-06-26T03:23:34;21.70;99.90
24146;DHT22;12308;50.948;4.706;2023-06-26T03:26:00;21.70;99.90
24146;DHT22;12308;50.948;4.706;2023-06-26T03:28:26;21.70;99.90
24146;DHT22;12308;50.948;4.706;2023-06-26T03:30:51;21.70;99.90
24146;DHT22;12308;50.948;4.706;2023-06-26T03:33:17;21.80;99.90
24146;DHT22;12308;50.948;4.706;2023-06-26T03:35:43;21.60;99.90
24146;DHT22;12308;50.948;4.706;2023-06-26T03:38:09;21.60;99.90
24146;DHT22;12308;50.948;4.706;2023-06-26T03:40:35;21.40;99.90
24146;DHT22;12308;50.948;4.706;2023-06-26T03:43:00;21.20;99.90
24146;DHT22;12308;50.948;4.706;2023-06-26T03:45:26;21.10;99.90
24146;DHT22;12308;50.948;4.706;2023-06-26T03:47:52;21.00;99.90
24146;DHT22;12308;50.948;4.706;2023-06-26T03:50:18;21.10;99.90
24146;DHT22;12308;50.948;4.706;2023-06-26T03:52:44;21.00;99.90
24146;DHT22;12308;50.948;4.706;2023-06-26T03:55:09;20.90;99.90
24146;DHT22;12308;50.948;4.706;2023-06-26T03:57:35;20.80;99.90
24146;DHT22;12308;50.948;4.706;2023-06-26T04:00:01;20.70;99.90
24146;DHT22;12308;50.948;4.706;2023-06-26T04:02:31;20.80;99.90
24146;DHT22;12308;50.948;4.706;2023-06-26T04:04:56;20.70;99.90
24146;DHT22;12308;50.948;4.706;2023-06-26T04:07:22;20.70;99.90
24146;DHT22;12308;50.948;4.706;2023-06-26T04:09:48;20.80;99.90
24146;DHT22;12308;50.948;4.706;2023-06-26T04:12:13;20.70;99.90
24146;DHT22;12308;50.948;4.706;2023-06-26T04:14:39;20.50;99.90
24146;DHT22;12308;50.948;4.706;2023-06-26T04:17:05;20.50;99.90
24146;DHT22;12308;50.948;4.706;2023-06-26T04:19:30;20.50;99.90
24146;DHT22;12308;50.948;4.706;2023-06-26T04:21:56;20.50;99.90
24146;DHT22;12308;50.948;4.706;2023-06-26T04:24:22;20.50;99.90
24146;DHT22;12308;50.948;4.706;2023-06-26T04:26:48;20.60;99.90
24146;DHT22;12308;50.948;4.706;2023-06-26T04:29:14;20.60;99.90
24146;DHT22;12308;50.948;4.706;2023-06-26T04:31:40;20.40;99.90
24146;DHT22;12308;50.948;4.706;2023-06-26T04:34:06;20.40;99.90
24146;DHT22;12308;50.948;4.706;2023-06-26T04:36:31;20.50;99.90
24146;DHT22;12308;50.948;4.706;2023-06-26T04:38:59;20.50;99.90
24146;DHT22;12308;50.948;4.706;2023-06-26T04:41:25;20.50;99.90
24146;DHT22;12308;50.948;4.706;2023-06-26T04:43:50;20.60;99.90
24146;DHT22;12308;50.948;4.706;2023-06-26T04:46:16;20.70;99.90
24146;DHT22;12308;50.948;4.706;2023-06-26T04:48:42;20.80;99.90
24146;DHT22;12308;50.948;4.706;2023-06-26T04:51:10;20.80;99.90
24146;DHT22;12308;50.948;4.706;2023-06-26T04:53:36;20.70;99.90
24146;DHT22;12308;50.948;4.706;2023-06-26T04:56:02;20.70;99.90
24146;DHT22;12308;50.948;4.706;2023-06-26T04:58:27;20.50;99.90
24146;DHT22;12308;50.948;4.706;2023-06-26T05:00:53;20.40;99.90
24146;DHT22;12308;50.948;4.706;2023-06-26T05:03:19;20.40;99.90
24146;DHT22;12308;50.948;4.706;2023-06-26T05:05:45;20.30;99.90
24146;DHT22;12308;50.948;4.706;2023-06-26T05:08:15;20.40;99.90
24146;DHT22;12308;50.948;4.706;2023-06-26T05:10:41;20.50;99.90
24146;DHT22;12308;50.948;4.706;2023-06-26T05:13:07;20.50;99.90
24146;DHT22;12308;50.948;4.706;2023-06-26T05:15:32;20.40;99.90
24146;DHT22;12308;50.948;4.706;2023-06-26T05:17:58;20.30;99.90
24146;DHT22;12308;50.948;4.706;2023-06-26T05:20:24;20.20;99.90
24146;DHT22;12308;50.948;4.706;2023-06-26T05:22:49;20.20;99.90
24146;DHT22;12308;50.948;4.706;2023-06-26T05:25:15;20.30;99.90
24146;DHT22;12308;50.948;4.706;2023-06-26T05:27:41;20.40;99.90
24146;DHT22;12308;50.948;4.706;2023-06-26T05:30:08;20.40;99.90
24146;DHT22;12308;50.948;4.706;2023-06-26T05:32:34;20.40;99.90
24146;DHT22;12308;50.948;4.706;2023-06-26T05:35:02;20.30;99.90
24146;DHT22;12308;50.948;4.706;2023-06-26T05:37:31;20.30;99.90
24146;DHT22;12308;50.948;4.706;2023-06-26T05:39:56;20.30;99.90
24146;DHT22;12308;50.948;4.706;2023-06-26T05:42:22;20.40;99.90
24146;DHT22;12308;50.948;4.706;2023-06-26T05:44:48;20.40;99.90
24146;DHT22;12308;50.948;4.706;2023-06-26T05:47:14;20.50;99.90
24146;DHT22;12308;50.948;4.706;2023-06-26T05:49:39;20.60;99.90
24146;DHT22;12308;50.948;4.706;2023-06-26T05:52:05;20.60;99.90
24146;DHT22;12308;50.948;4.706;2023-06-26T05:54:31;20.50;99.90
24146;DHT22;12308;50.948;4.706;2023-06-26T05:56:58;20.20;99.90
24146;DHT22;12308;50.948;4.706;2023-06-26T05:59:25;20.20;99.90
24146;DHT22;12308;50.948;4.706;2023-06-26T06:01:52;20.40;99.90
24146;DHT22;12308;50.948;4.706;2023-06-26T06:04:18;20.60;99.90
24146;DHT22;12308;50.948;4.706;2023-06-26T06:06:44;20.50;99.90
24146;DHT22;12308;50.948;4.706;2023-06-26T06:09:09;20.50;99.90
24146;DHT22;12308;50.948;4.706;2023-06-26T06:11:35;20.60;99.90
24146;DHT22;12308;50.948;4.706;2023-06-26T06:14:01;20.70;99.90
24146;DHT22;12308;50.948;4.706;2023-06-26T06:16:26;20.50;99.90
24146;DHT22;12308;50.948;4.706;2023-06-26T06:18:54;20.60;99.90
24146;DHT22;12308;50.948;4.706;2023-06-26T06:21:20;20.60;99.90
24146;DHT22;12308;50.948;4.706;2023-06-26T06:23:46;20.80;99.90
24146;DHT22;12308;50.948;4.706;2023-06-26T06:26:12;20.60;99.90
24146;DHT22;12308;50.948;4.706;2023-06-26T06:28:38;20.60;99.90
24146;DHT22;12308;50.948;4.706;2023-06-26T06:31:04;20.70;99.90
24146;DHT22;12308;50.948;4.706;2023-06-26T06:33:30;20.80;99.90
24146;DHT22;12308;50.948;4.706;2023-06-26T06:35:55;20.90;99.90
24146;DHT22;12308;50.948;4.706;2023-06-26T06:38:21;20.90;99.90
24146;DHT22;12308;50.948;4.706;2023-06-26T06:40:47;20.70;99.90
24146;DHT22;12308;50.948;4.706;2023-06-26T06:43:12;20.60;99.90
24146;DHT22;12308;50.948;4.706;2023-06-26T06:45:38;20.90;99.90
24146;DHT22;12308;50.948;4.706;2023-06-26T06:48:04;21.00;99.90
24146;DHT22;12308;50.948;4.706;2023-06-26T06:50:30;21.30;99.90
24146;DHT22;12308;50.948;4.706;2023-06-26T06:52:56;21.30;99.90
24146;DHT22;12308;50.948;4.706;2023-06-26T06:55:22;21.40;99.90
24146;DHT22;12308;50.948;4.706;2023-06-26T06:57:49;21.40;99.90
24146;DHT22;12308;50.948;4.706;2023-06-26T07:00:15;21.30;99.90
24146;DHT22;12308;50.948;4.706;2023-06-26T07:02:45;21.20;99.90
24146;DHT22;12308;50.948;4.706;2023-06-26T07:05:11;21.20;99.90
24146;DHT22;12308;50.948;4.706;2023-06-26T07:07:38;21.20;99.90
24146;DHT22;12308;50.948;4.706;2023-06-26T07:10:08;21.20;99.90
24146;DHT22;12308;50.948;4.706;2023-06-26T07:12:35;21.00;99.90
24146;DHT22;12308;50.948;4.706;2023-06-26T07:15:02;21.00;99.90
24146;DHT22;12308;50.948;4.706;2023-06-26T07:17:28;21.10;99.90
24146;DHT22;12308;50.948;4.706;2023-06-26T07:19:53;21.10;99.90
24146;DHT22;12308;50.948;4.706;2023-06-26T07:22:19;21.20;99.90
24146;DHT22;12308;50.948;4.706;2023-06-26T07:24:49;21.30;99.90
24146;DHT22;12308;50.948;4.706;2023-06-26T07:27:15;21.50;99.90
24146;DHT22;12308;50.948;4.706;2023-06-26T07:29:42;21.40;99.90
24146;DHT22;12308;50.948;4.706;2023-06-26T07:32:07;21.50;99.90
24146;DHT22;12308;50.948;4.706;2023-06-26T07:34:33;21.60;99.90
24146;DHT22;12308;50.948;4.706;2023-06-26T07:36:59;21.70;99.90
24146;DHT22;12308;50.948;4.706;2023-06-26T07:39:25;21.90;99.90
24146;DHT22;12308;50.948;4.706;2023-06-26T07:41:51;22.00;99.90
24146;DHT22;12308;50.948;4.706;2023-06-26T07:44:16;22.10;99.90
24146;DHT22;12308;50.948;4.706;2023-06-26T07:46:42;22.20;99.90
24146;DHT22;12308;50.948;4.706;2023-06-26T07:49:07;22.30;99.90
24146;DHT22;12308;50.948;4.706;2023-06-26T07:51:33;22.30;99.90
24146;DHT22;12308;50.948;4.706;2023-06-26T07:53:59;22.40;99.90
24146;DHT22;12308;50.948;4.706;2023-06-26T07:56:25;22.40;99.90
24146;DHT22;12308;50.948;4.706;2023-06-26T07:58:50;22.30;99.90
24146;DHT22;12308;50.948;4.706;2023-06-26T08:01:16;22.40;99.90
24146;DHT22;12308;50.948;4.706;2023-06-26T08:03:41;22.30;99.90
24146;DHT22;12308;50.948;4.706;2023-06-26T08:06:07;22.30;99.90
24146;DHT22;12308;50.948;4.706;2023-06-26T08:08:33;22.40;99.90
24146;DHT22;12308;50.948;4.706;2023-06-26T08:10:58;22.30;99.90
24146;DHT22;12308;50.948;4.706;2023-06-26T08:13:25;22.40;99.90
24146;DHT22;12308;50.948;4.706;2023-06-26T08:15:50;22.50;99.90
24146;DHT22;12308;50.948;4.706;2023-06-26T08:18:17;22.70;99.90
24146;DHT22;12308;50.948;4.706;2023-06-26T08:20:43;22.50;99.90
24146;DHT22;12308;50.948;4.706;2023-06-26T08:23:08;22.50;99.90
24146;DHT22;12308;50.948;4.706;2023-06-26T08:25:34;22.60;99.90
24146;DHT22;12308;50.948;4.706;2023-06-26T08:28:00;22.70;99.90
24146;DHT22;12308;50.948;4.706;2023-06-26T08:30:25;23.00;99.90
24146;DHT22;12308;50.948;4.706;2023-06-26T08:32:56;23.00;99.90
24146;DHT22;12308;50.948;4.706;2023-06-26T08:35:21;22.90;99.90
24146;DHT22;12308;50.948;4.706;2023-06-26T08:37:47;23.10;99.90
24146;DHT22;12308;50.948;4.706;2023-06-26T08:40:16;23.40;99.90
24146;DHT22;12308;50.948;4.706;2023-06-26T08:42:42;23.50;99.90
24146;DHT22;12308;50.948;4.706;2023-06-26T08:45:08;23.50;99.90
24146;DHT22;12308;50.948;4.706;2023-06-26T08:47:35;23.50;99.90
24146;DHT22;12308;50.948;4.706;2023-06-26T08:50:13;23.60;99.90
24146;DHT22;12308;50.948;4.706;2023-06-26T08:53:04;23.80;99.90
24146;DHT22;12308;50.948;4.706;2023-06-26T08:55:35;24.10;99.90
24146;DHT22;12308;50.948;4.706;2023-06-26T08:58:04;24.00;99.90
24146;DHT22;12308;50.948;4.706;2023-06-26T09:00:30;23.70;99.90
24146;DHT22;12308;50.948;4.706;2023-06-26T09:02:56;23.40;99.90
24146;DHT22;12308;50.948;4.706;2023-06-26T09:05:22;23.60;99.90
24146;DHT22;12308;50.948;4.706;2023-06-26T09:07:48;23.70;99.90
24146;DHT22;12308;50.948;4.706;2023-06-26T09:10:13;23.80;99.90
24146;DHT22;12308;50.948;4.706;2023-06-26T09:12:39;24.10;99.90
24146;DHT22;12308;50.948;4.706;2023-06-26T09:15:06;24.30;99.90
24146;DHT22;12308;50.948;4.706;2023-06-26T09:17:38;24.40;99.90
24146;DHT22;12308;50.948;4.706;2023-06-26T09:20:05;24.30;99.90
24146;DHT22;12308;50.948;4.706;2023-06-26T09:22:36;24.30;99.90
24146;DHT22;12308;50.948;4.706;2023-06-26T09:25:03;24.20;99.90
24146;DHT22;12308;50.948;4.706;2023-06-26T09:27:29;24.20;99.90
24146;DHT22;12308;50.948;4.706;2023-06-26T09:29:55;24.40;99.90
24146;DHT22;12308;50.948;4.706;2023-06-26T09:32:25;24.70;99.90
24146;DHT22;12308;50.948;4.706;2023-06-26T09:34:53;24.80;99.90
24146;DHT22;12308;50.948;4.706;2023-06-26T09:37:19;24.60;99.90
24146;DHT22;12308;50.948;4.706;2023-06-26T09:39:45;24.40;99.90
24146;DHT22;12308;50.948;4.706;2023-06-26T09:42:13;24.60;99.90
24146;DHT22;12308;50.948;4.706;2023-06-26T09:44:44;24.60;99.90
24146;DHT22;12308;50.948;4.706;2023-06-26T09:47:10;24.60;99.90
24146;DHT22;12308;50.948;4.706;2023-06-26T09:49:35;24.40;99.90
24146;DHT22;12308;50.948;4.706;2023-06-26T09:52:01;24.20;99.90
24146;DHT22;12308;50.948;4.706;2023-06-26T09:54:28;24.30;99.90
24146;DHT22;12308;50.948;4.706;2023-06-26T09:57:06;24.10;99.90
24146;DHT22;12308;50.948;4.706;2023-06-26T09:59:32;24.10;99.90
24146;DHT22;12308;50.948;4.706;2023-06-26T10:01:59;24.30;99.90
24146;DHT22;12308;50.948;4.706;2023-06-26T10:04:25;24.00;99.90
24146;DHT22;12308;50.948;4.706;2023-06-26T10:06:51;23.80;99.90
24146;DHT22;12308;50.948;4.706;2023-06-26T10:09:19;23.90;99.90
24146;DHT22;12308;50.948;4.706;2023-06-26T10:12:14;23.80;99.90
24146;DHT22;12308;50.948;4.706;2023-06-26T10:14:41;23.70;99.90
24146;DHT22;12308;50.948;4.706;2023-06-26T10:17:10;23.60;99.90
24146;DHT22;12308;50.948;4.706;2023-06-26T10:19:38;23.70;99.90
24146;DHT22;12308;50.948;4.706;2023-06-26T10:22:05;23.90;99.90
24146;DHT22;12308;50.948;4.706;2023-06-26T10:24:33;24.00;99.90
24146;DHT22;12308;50.948;4.706;2023-06-26T10:27:08;24.20;99.90
24146;DHT22;12308;50.948;4.706;2023-06-26T10:29:36;24.30;99.90
24146;DHT22;12308;50.948;4.706;2023-06-26T10:32:04;24.30;99.90
24146;DHT22;12308;50.948;4.706;2023-06-26T10:34:30;24.20;99.90
24146;DHT22;12308;50.948;4.706;2023-06-26T10:49:36;24.00;99.90
24146;DHT22;12308;50.948;4.706;2023-06-26T10:52:02;24.10;99.90
24146;DHT22;12308;50.948;4.706;2023-06-26T10:54:34;24.10;99.90
24146;DHT22;12308;50.948;4.706;2023-06-26T10:57:01;24.00;99.90
24146;DHT22;12308;50.948;4.706;2023-06-26T10:59:28;24.20;99.90
24146;DHT22;12308;50.948;4.706;2023-06-26T11:02:02;24.40;99.90
24146;DHT22;12308;50.948;4.706;2023-06-26T11:04:59;24.20;99.90
24146;DHT22;12308;50.948;4.706;2023-06-26T11:07:26;24.60;99.90
24146;DHT22;12308;50.948;4.706;2023-06-26T11:12:53;24.80;99.90
24146;DHT22;12308;50.948;4.706;2023-06-26T11:15:19;24.70;99.90
24146;DHT22;12308;50.948;4.706;2023-06-26T11:17:45;24.60;99.90
24146;DHT22;12308;50.948;4.706;2023-06-26T11:20:13;24.50;99.90
24146;DHT22;12308;50.948;4.706;2023-06-26T11:22:40;24.50;99.90
24146;DHT22;12308;50.948;4.706;2023-06-26T11:25:08;24.50;99.90
24146;DHT22;12308;50.948;4.706;2023-06-26T11:27:43;24.30;99.90
24146;DHT22;12308;50.948;4.706;2023-06-26T11:30:11;24.30;99.90
24146;DHT22;12308;50.948;4.706;2023-06-26T11:32:37;24.50;99.90
24146;DHT22;12308;50.948;4.706;2023-06-26T11:35:04;24.90;99.90
24146;DHT22;12308;50.948;4.706;2023-06-26T11:37:31;25.40;99.90
24146;DHT22;12308;50.948;4.706;2023-06-26T11:39:57;25.30;99.90
24146;DHT22;12308;50.948;4.706;2023-06-26T11:42:24;25.10;99.90
24146;DHT22;12308;50.948;4.706;2023-06-26T11:44:53;24.90;99.90
24146;DHT22;12308;50.948;4.706;2023-06-26T11:47:20;24.80;99.90
24146;DHT22;12308;50.948;4.706;2023-06-26T11:49:48;24.80;99.90
24146;DHT22;12308;50.948;4.706;2023-06-26T11:52:15;24.80;99.90
24146;DHT22;12308;50.948;4.706;2023-06-26T11:54:42;24.90;99.90
24146;DHT22;12308;50.948;4.706;2023-06-26T11:57:08;24.90;99.90
24146;DHT22;12308;50.948;4.706;2023-06-26T11:59:39;24.60;99.90
24146;DHT22;12308;50.948;4.706;2023-06-26T12:02:10;24.80;99.90
24146;DHT22;12308;50.948;4.706;2023-06-26T12:04:37;25.10;99.90
24146;DHT22;12308;50.948;4.706;2023-06-26T12:07:06;25.20;99.90
24146;DHT22;12308;50.948;4.706;2023-06-26T12:09:37;25.10;99.90
24146;DHT22;12308;50.948;4.706;2023-06-26T12:12:04;25.00;99.90
24146;DHT22;12308;50.948;4.706;2023-06-26T12:14:31;25.00;99.90
24146;DHT22;12308;50.948;4.706;2023-06-26T12:17:04;25.40;99.90
24146;DHT22;12308;50.948;4.706;2023-06-26T12:19:30;25.30;99.90
24146;DHT22;12308;50.948;4.706;2023-06-26T12:21:55;25.20;99.90
24146;DHT22;12308;50.948;4.706;2023-06-26T12:24:22;25.10;99.90
24146;DHT22;12308;50.948;4.706;2023-06-26T12:26:53;25.10;99.90
24146;DHT22;12308;50.948;4.706;2023-06-26T12:29:21;25.00;99.90
24146;DHT22;12308;50.948;4.706;2023-06-26T12:31:54;25.00;99.90
24146;DHT22;12308;50.948;4.706;2023-06-26T12:34:26;25.10;99.90
24146;DHT22;12308;50.948;4.706;2023-06-26T12:36:52;25.00;99.90
24146;DHT22;12308;50.948;4.706;2023-06-26T12:39:19;24.90;99.90
24146;DHT22;12308;50.948;4.706;2023-06-26T12:41:52;25.00;99.90
24146;DHT22;12308;50.948;4.706;2023-06-26T12:44:29;25.10;99.90
24146;DHT22;12308;50.948;4.706;2023-06-26T12:46:59;25.10;99.90
24146;DHT22;12308;50.948;4.706;2023-06-26T12:49:38;24.80;99.90
24146;DHT22;12308;50.948;4.706;2023-06-26T12:52:09;24.90;99.90
24146;DHT22;12308;50.948;4.706;2023-06-26T12:54:36;25.20;99.90
24146;DHT22;12308;50.948;4.706;2023-06-26T12:57:02;25.40;99.90
24146;DHT22;12308;50.948;4.706;2023-06-26T12:59:30;25.40;99.90
24146;DHT22;12308;50.948;4.706;2023-06-26T13:01:57;25.50;99.90
24146;DHT22;12308;50.948;4.706;2023-06-26T13:04:23;25.50;99.90
24146;DHT22;12308;50.948;4.706;2023-06-26T13:06:49;25.30;99.90
24146;DHT22;12308;50.948;4.706;2023-06-26T13:09:17;25.40;99.90
24146;DHT22;12308;50.948;4.706;2023-06-26T13:11:42;25.60;99.90
24146;DHT22;12308;50.948;4.706;2023-06-26T13:14:08;25.50;99.90
24146;DHT22;12308;50.948;4.706;2023-06-26T13:16:34;25.50;99.90
24146;DHT22;12308;50.948;4.706;2023-06-26T13:19:00;25.60;99.90
24146;DHT22;12308;50.948;4.706;2023-06-26T13:21:28;25.50;99.90
24146;DHT22;12308;50.948;4.706;2023-06-26T13:23:55;25.40;99.90
24146;DHT22;12308;50.948;4.706;2023-06-26T13:26:21;25.40;99.90
24146;DHT22;12308;50.948;4.706;2023-06-26T13:28:48;25.10;99.90
24146;DHT22;12308;50.948;4.706;2023-06-26T13:31:14;25.10;99.90
24146;DHT22;12308;50.948;4.706;2023-06-26T13:33:40;25.00;99.90
24146;DHT22;12308;50.948;4.706;2023-06-26T13:36:06;25.10;99.90
24146;DHT22;12308;50.948;4.706;2023-06-26T13:38:34;25.20;99.90
24146;DHT22;12308;50.948;4.706;2023-06-26T13:41:00;25.40;99.90
24146;DHT22;12308;50.948;4.706;2023-06-26T13:43:27;25.50;99.90
24146;DHT22;12308;50.948;4.706;2023-06-26T13:45:54;25.40;99.90
24146;DHT22;12308;50.948;4.706;2023-06-26T13:48:20;25.50;99.90
24146;DHT22;12308;50.948;4.706;2023-06-26T13:50:46;25.90;99.90
24146;DHT22;12308;50.948;4.706;2023-06-26T13:53:12;25.90;99.90
24146;DHT22;12308;50.948;4.706;2023-06-26T13:55:39;26.00;99.90
24146;DHT22;12308;50.948;4.706;2023-06-26T13:58:05;26.00;99.90
24146;DHT22;12308;50.948;4.706;2023-06-26T14:00:32;26.10;99.90
24146;DHT22;12308;50.948;4.706;2023-06-26T14:03:03;25.80;99.90
24146;DHT22;12308;50.948;4.706;2023-06-26T14:05:30;25.60;99.90
24146;DHT22;12308;50.948;4.706;2023-06-26T14:07:56;25.60;99.90
24146;DHT22;12308;50.948;4.706;2023-06-26T14:10:22;25.30;99.90
24146;DHT22;12308;50.948;4.706;2023-06-26T14:12:48;25.30;99.90
24146;DHT22;12308;50.948;4.706;2023-06-26T14:15:14;25.30;99.90
24146;DHT22;12308;50.948;4.706;2023-06-26T14:17:40;25.80;99.90
24146;DHT22;12308;50.948;4.706;2023-06-26T14:20:07;26.00;99.90
24146;DHT22;12308;50.948;4.706;2023-06-26T14:22:42;26.10;99.90
24146;DHT22;12308;50.948;4.706;2023-06-26T14:25:08;25.90;99.90
24146;DHT22;12308;50.948;4.706;2023-06-26T14:27:35;26.20;99.90
24146;DHT22;12308;50.948;4.706;2023-06-26T14:30:01;26.40;99.90
24146;DHT22;12308;50.948;4.706;2023-06-26T14:32:28;26.20;99.90
24146;DHT22;12308;50.948;4.706;2023-06-26T14:34:54;26.20;99.90
24146;DHT22;12308;50.948;4.706;2023-06-26T14:37:19;26.00;99.90
24146;DHT22;12308;50.948;4.706;2023-06-26T14:39:45;26.00;99.90
24146;DHT22;12308;50.948;4.706;2023-06-26T14:42:11;25.90;99.90
24146;DHT22;12308;50.948;4.706;2023-06-26T14:44:37;26.00;99.90
24146;DHT22;12308;50.948;4.706;2023-06-26T14:47:03;26.20;99.80
24146;DHT22;12308;50.948;4.706;2023-06-26T14:49:30;26.30;99.90
24146;DHT22;12308;50.948;4.706;2023-06-26T14:51:55;26.20;99.70
24146;DHT22;12308;50.948;4.706;2023-06-26T14:54:21;26.00;99.70
24146;DHT22;12308;50.948;4.706;2023-06-26T14:56:47;25.70;99.90
24146;DHT22;12308;50.948;4.706;2023-06-26T14:59:12;25.60;99.90
24146;DHT22;12308;50.948;4.706;2023-06-26T15:01:39;25.60;99.90
24146;DHT22;12308;50.948;4.706;2023-06-26T15:04:07;25.60;99.90
24146;DHT22;12308;50.948;4.706;2023-06-26T15:06:34;25.70;99.90
24146;DHT22;12308;50.948;4.706;2023-06-26T15:09:00;25.60;99.90
24146;DHT22;12308;50.948;4.706;2023-06-26T15:11:26;25.50;99.90
24146;DHT22;12308;50.948;4.706;2023-06-26T15:13:52;25.50;99.90
24146;DHT22;12308;50.948;4.706;2023-06-26T15:16:18;25.60;99.90
24146;DHT22;12308;50.948;4.706;2023-06-26T15:18:44;25.80;99.90
24146;DHT22;12308;50.948;4.706;2023-06-26T15:21:10;25.70;99.80
24146;DHT22;12308;50.948;4.706;2023-06-26T15:23:35;25.50;99.90
24146;DHT22;12308;50.948;4.706;2023-06-26T15:26:01;25.30;99.90
24146;DHT22;12308;50.948;4.706;2023-06-26T15:28:27;25.20;99.90
24146;DHT22;12308;50.948;4.706;2023-06-26T15:30:53;25.20;99.90
24146;DHT22;12308;50.948;4.706;2023-06-26T15:33:18;25.10;99.90
24146;DHT22;12308;50.948;4.706;2023-06-26T15:35:44;24.70;99.90
24146;DHT22;12308;50.948;4.706;2023-06-26T15:38:10;24.40;99.90
24146;DHT22;12308;50.948;4.706;2023-06-26T15:40:36;24.30;99.90
24146;DHT22;12308;50.948;4.706;2023-06-26T15:43:02;24.30;99.90
24146;DHT22;12308;50.948;4.706;2023-06-26T15:45:29;24.20;99.90
24146;DHT22;12308;50.948;4.706;2023-06-26T15:47:55;24.00;99.90